createdAt,value
2022-11-22T00:00:16.758Z,98576.00
2022-11-22T00:02:43.273Z,98596.94
2022-11-22T00:05:10.365Z,98599.84
2022-11-22T00:07:38.109Z,98597.88
2022-11-22T00:10:06.703Z,98584.97
2022-11-22T00:12:33.308Z,98554.53
2022-11-22T00:15:00.135Z,98581.66
2022-11-22T00:17:26.596Z,98588.94
2022-11-22T00:19:53.149Z,98561.09
2022-11-22T00:22:19.836Z,98575.53
2022-11-22T00:24:46.383Z,98554.16
2022-11-22T00:27:13.253Z,98562.66
2022-11-22T00:29:39.695Z,98577.47
2022-11-22T00:32:06.209Z,98570.81
2022-11-22T00:34:32.678Z,98563.19
2022-11-22T00:36:59.181Z,98569.75
2022-11-22T00:39:25.656Z,98510.81
2022-11-22T00:41:52.371Z,98546.41
2022-11-22T00:44:18.899Z,98472.38
2022-11-22T00:46:45.398Z,98512.16
2022-11-22T00:49:11.878Z,98446.16
2022-11-22T00:51:38.374Z,98497.38
2022-11-22T00:54:04.992Z,98503.72
2022-11-22T00:56:32.089Z,98502.81
2022-11-22T00:58:58.806Z,98507.78
2022-11-22T01:01:25.464Z,98528.53
2022-11-22T01:03:51.989Z,98525.72
2022-11-22T01:06:18.468Z,98527.25
2022-11-22T01:08:45.004Z,98469.72
2022-11-22T01:11:17.735Z,98527.97
2022-11-22T01:13:44.420Z,98545.78
2022-11-22T01:16:12.548Z,98536.28
2022-11-22T01:18:39.145Z,98528.28
2022-11-22T01:21:05.966Z,98534.84
2022-11-22T01:23:33.736Z,98541.97
2022-11-22T01:26:00.441Z,98525.19
2022-11-22T01:28:27.212Z,98512.22
2022-11-22T01:30:54.559Z,98499.09
2022-11-22T01:33:21.302Z,98527.06
2022-11-22T01:35:47.987Z,98521.03
2022-11-22T01:38:14.436Z,98507.63
2022-11-22T01:40:40.982Z,98509.38
2022-11-22T01:43:16.263Z,98525.75
2022-11-22T01:45:54.293Z,98515.28
2022-11-22T01:48:36.411Z,98504.03
2022-11-22T01:51:28.723Z,98545.94
2022-11-22T01:54:02.402Z,98537.69
2022-11-22T01:56:29.657Z,98540.22
2022-11-22T01:59:01.976Z,98537.78
2022-11-22T02:01:28.817Z,98541.03
2022-11-22T02:03:57.004Z,98538.25
2022-11-22T02:06:26.241Z,98538.50
2022-11-22T02:09:02.490Z,98552.69
2022-11-22T02:11:33.892Z,98559.97
2022-11-22T02:14:00.906Z,98547.91
2022-11-22T02:16:27.846Z,98554.59
2022-11-22T02:18:54.386Z,98507.78
2022-11-22T02:21:21.098Z,98547.28
2022-11-22T02:24:00.221Z,98534.44
2022-11-22T02:26:28.115Z,98540.22
2022-11-22T02:28:57.825Z,98528.72
2022-11-22T02:31:46.308Z,98492.81
2022-11-22T02:34:14.060Z,98555.00
2022-11-22T02:36:49.367Z,98556.44
2022-11-22T02:39:18.668Z,98552.94
2022-11-22T02:41:45.466Z,98552.16
2022-11-22T02:44:12.630Z,98543.66
2022-11-22T02:46:50.213Z,98554.69
2022-11-22T02:49:22.486Z,98557.72
2022-11-22T02:51:49.553Z,98543.75
2022-11-22T02:54:16.478Z,98563.06
2022-11-22T02:56:43.044Z,98570.34
2022-11-22T02:59:09.715Z,98535.63
2022-11-22T03:01:36.637Z,98575.53
2022-11-22T03:04:03.273Z,98543.59
2022-11-22T03:06:29.776Z,98570.97
2022-11-22T03:08:56.846Z,98573.94
2022-11-22T03:11:24.083Z,98584.75
2022-11-22T03:13:50.941Z,98589.47
2022-11-22T03:16:17.588Z,98590.53
2022-11-22T03:18:44.099Z,98589.38
2022-11-22T03:21:10.553Z,98537.03
2022-11-22T03:23:37.078Z,98595.59
2022-11-22T03:26:10.668Z,98591.16
2022-11-22T03:28:37.177Z,98596.28
2022-11-22T03:31:07.349Z,98596.44
2022-11-22T03:33:34.812Z,98597.66
2022-11-22T03:36:01.647Z,98585.03
2022-11-22T03:38:28.085Z,98603.25
2022-11-22T03:40:54.631Z,98599.78
2022-11-22T03:43:21.444Z,98588.16
2022-11-22T03:45:48.523Z,98605.13
2022-11-22T03:48:15.067Z,98611.78
2022-11-22T03:50:41.496Z,98593.41
2022-11-22T03:53:08.491Z,98609.28
2022-11-22T03:55:35.201Z,98594.53
2022-11-22T03:58:01.896Z,98626.16
2022-11-22T04:00:28.393Z,98634.59
2022-11-22T04:02:55.017Z,98610.94
2022-11-22T04:05:21.522Z,98634.16
2022-11-22T04:07:48.872Z,98631.97
2022-11-22T04:10:19.349Z,98634.44
2022-11-22T04:12:48.742Z,98634.22
2022-11-22T04:15:15.318Z,98637.88
2022-11-22T04:17:47.838Z,98640.06
2022-11-22T04:20:36.012Z,98645.63
2022-11-22T04:23:06.836Z,98656.34
2022-11-22T04:25:35.288Z,98629.50
2022-11-22T04:28:02.378Z,98641.16
2022-11-22T04:30:47.486Z,98657.91
2022-11-22T04:33:14.803Z,98654.94
2022-11-22T04:35:42.317Z,98656.06
2022-11-22T04:38:08.988Z,98657.06
2022-11-22T04:40:35.893Z,98662.06
2022-11-22T04:43:21.564Z,98678.66
2022-11-22T04:45:48.118Z,98632.03
2022-11-22T04:48:15.079Z,98678.66
2022-11-22T04:51:17.380Z,98679.78
2022-11-22T04:53:44.926Z,98681.75
2022-11-22T04:56:12.165Z,98662.41
2022-11-22T04:58:39.004Z,98690.31
2022-11-22T05:01:05.575Z,98680.72
2022-11-22T05:03:32.258Z,98645.06
2022-11-22T05:06:02.570Z,98681.69
2022-11-22T05:08:29.676Z,98678.94
2022-11-22T05:10:59.575Z,98687.00
2022-11-22T05:13:37.775Z,98658.44
2022-11-22T05:16:06.131Z,98666.56
2022-11-22T05:18:32.797Z,98675.31
2022-11-22T05:21:00.708Z,98664.41
2022-11-22T05:23:45.754Z,98678.94
2022-11-22T05:26:12.257Z,98671.91
2022-11-22T05:28:39.448Z,98667.63
2022-11-22T05:31:11.830Z,98676.25
2022-11-22T05:33:39.981Z,98671.66
2022-11-22T05:36:07.668Z,98675.72
2022-11-22T05:38:38.055Z,98672.97
2022-11-22T05:41:06.761Z,98684.34
2022-11-22T05:43:33.572Z,98682.00
2022-11-22T05:46:07.478Z,98678.25
2022-11-22T05:48:34.017Z,98678.56
2022-11-22T05:51:04.377Z,98669.38
2022-11-22T05:53:30.948Z,98677.03
2022-11-22T05:55:57.453Z,98638.31
2022-11-22T05:58:23.988Z,98684.59
2022-11-22T06:00:50.414Z,98657.16
2022-11-22T06:03:16.864Z,98644.34
2022-11-22T06:05:43.316Z,98637.47
2022-11-22T06:08:11.374Z,98693.75
2022-11-22T06:10:39.112Z,98701.50
2022-11-22T06:13:05.580Z,98678.13
2022-11-22T06:15:32.121Z,98693.41
2022-11-22T06:17:58.633Z,98708.50
2022-11-22T06:20:25.282Z,98721.72
2022-11-22T06:22:51.717Z,98733.66
2022-11-22T06:25:18.255Z,98723.00
2022-11-22T06:27:44.732Z,98716.25
2022-11-22T06:30:11.776Z,98689.38
2022-11-22T06:32:38.287Z,98730.56
2022-11-22T06:35:05.156Z,98736.34
2022-11-22T06:37:31.696Z,98701.06
2022-11-22T06:39:58.198Z,98745.63
2022-11-22T06:42:24.976Z,98715.22
2022-11-22T06:44:51.522Z,98748.13
2022-11-22T06:47:18.283Z,98703.47
2022-11-22T06:49:45.642Z,98756.06
2022-11-22T06:52:12.200Z,98746.38
2022-11-22T06:54:38.826Z,98743.59
2022-11-22T06:57:05.315Z,98759.03
2022-11-22T06:59:32.175Z,98731.28
2022-11-22T07:02:04.525Z,98730.91
2022-11-22T07:04:32.885Z,98763.34
2022-11-22T07:06:59.322Z,98763.06
2022-11-22T07:09:25.935Z,98767.75
2022-11-22T07:11:52.369Z,98763.34
2022-11-22T07:14:19.258Z,98755.06
2022-11-22T07:16:45.680Z,98752.00
2022-11-22T07:19:12.122Z,98737.84
2022-11-22T07:21:38.570Z,98735.78
2022-11-22T07:24:06.031Z,98807.09
2022-11-22T07:26:32.615Z,98803.72
2022-11-22T07:28:59.028Z,98797.06
2022-11-22T07:31:26.109Z,98807.97
2022-11-22T07:33:52.620Z,98799.53
2022-11-22T07:36:21.257Z,98792.19
2022-11-22T07:38:48.540Z,98792.63
2022-11-22T07:41:15.661Z,98679.00
2022-11-22T07:43:42.216Z,98793.53
2022-11-22T07:46:21.810Z,98796.34
2022-11-22T07:48:49.656Z,98766.84
2022-11-22T07:51:16.707Z,98800.03
2022-11-22T07:53:43.333Z,98792.50
2022-11-22T07:56:09.931Z,98802.78
2022-11-22T07:58:37.530Z,98766.34
2022-11-22T08:01:06.293Z,98800.13
2022-11-22T08:03:32.881Z,98803.97
2022-11-22T08:06:00.941Z,98806.31
2022-11-22T08:08:27.851Z,98795.59
2022-11-22T08:10:54.449Z,98800.09
2022-11-22T08:13:21.395Z,98798.28
2022-11-22T08:15:54.423Z,98799.47
2022-11-22T08:18:21.828Z,98791.84
2022-11-22T08:20:48.268Z,98745.09
2022-11-22T08:23:14.818Z,98737.47
2022-11-22T08:25:41.416Z,98790.56
2022-11-22T08:28:07.956Z,98763.75
2022-11-22T08:30:34.597Z,98802.59
2022-11-22T08:33:01.071Z,98802.84
2022-11-22T08:35:27.559Z,98805.72
2022-11-22T08:37:57.776Z,98799.81
2022-11-22T08:40:24.506Z,98805.75
2022-11-22T08:42:53.898Z,98809.50
2022-11-22T08:45:20.415Z,98796.94
2022-11-22T08:47:47.311Z,98812.69
2022-11-22T08:50:13.783Z,98777.66
2022-11-22T08:52:40.244Z,98825.59
2022-11-22T08:55:07.611Z,98807.94
2022-11-22T08:57:34.079Z,98801.97
2022-11-22T09:00:00.635Z,98808.75
2022-11-22T09:02:27.177Z,98815.41
2022-11-22T09:04:53.673Z,98812.25
2022-11-22T09:10:08.111Z,98820.63
2022-11-22T09:12:34.752Z,98826.06
2022-11-22T09:15:01.324Z,98833.28
2022-11-22T09:17:27.860Z,98824.13
2022-11-22T09:19:54.488Z,98819.63
2022-11-22T09:22:24.017Z,98845.72
2022-11-22T09:24:53.399Z,98827.69
2022-11-22T09:27:20.238Z,98842.28
2022-11-22T09:29:46.697Z,98834.00
2022-11-22T09:32:13.152Z,98832.19
2022-11-22T09:34:49.668Z,98840.81
2022-11-22T09:37:18.547Z,98816.66
2022-11-22T09:39:48.458Z,98809.88
2022-11-22T09:42:53.412Z,98819.88
2022-11-22T09:45:51.934Z,98820.97
2022-11-22T09:48:36.576Z,98822.13
2022-11-22T09:51:07.347Z,98801.44
2022-11-22T09:53:48.113Z,98820.06
2022-11-22T09:56:19.632Z,98793.63
2022-11-22T09:58:52.905Z,98817.34
2022-11-22T10:01:31.836Z,98816.06
2022-11-22T10:04:06.483Z,98792.34
2022-11-22T10:06:36.080Z,98780.22
2022-11-22T10:09:02.518Z,98802.38
2022-11-22T10:11:36.795Z,98814.94
2022-11-22T10:14:22.718Z,98814.25
2022-11-22T10:17:18.467Z,98820.13
2022-11-22T10:19:54.461Z,98794.72
2022-11-22T10:22:21.260Z,98794.84
2022-11-22T10:24:47.727Z,98798.97
2022-11-22T10:27:15.409Z,98801.44
2022-11-22T10:29:52.156Z,98797.63
2022-11-22T10:32:24.798Z,98770.91
2022-11-22T10:35:04.070Z,98787.84
2022-11-22T10:37:52.431Z,98793.13
2022-11-22T10:40:23.676Z,98775.78
2022-11-22T10:43:05.189Z,98771.75
2022-11-22T10:45:41.231Z,98780.72
2022-11-22T10:48:52.433Z,98791.84
2022-11-22T10:51:37.502Z,98783.06
2022-11-22T10:54:15.452Z,98793.63
2022-11-22T10:57:19.215Z,98791.53
2022-11-22T11:00:21.986Z,98781.59
2022-11-22T11:02:54.473Z,98781.03
2022-11-22T11:05:25.297Z,98781.38
2022-11-22T11:07:56.717Z,98755.06
2022-11-22T11:10:34.549Z,98797.03
2022-11-22T11:13:09.448Z,98802.44
2022-11-22T11:15:43.002Z,98807.28
2022-11-22T11:18:17.561Z,98775.94
2022-11-22T11:20:47.588Z,98808.47
2022-11-22T11:23:16.133Z,98745.94
2022-11-22T11:25:44.628Z,98802.63
2022-11-22T11:28:13.135Z,98773.75
2022-11-22T11:30:43.296Z,98804.09
2022-11-22T11:33:26.523Z,98811.69
2022-11-22T11:35:56.623Z,98799.13
2022-11-22T11:38:35.753Z,98785.72
2022-11-22T11:41:21.909Z,98799.00
2022-11-22T11:43:49.539Z,98787.47
2022-11-22T11:46:24.676Z,98767.88
2022-11-22T11:48:55.737Z,98779.03
2022-11-22T11:51:35.630Z,98746.88
2022-11-22T11:54:06.031Z,98766.28
2022-11-22T11:56:35.430Z,98763.31
2022-11-22T11:59:07.209Z,98755.44
2022-11-22T12:01:38.698Z,98752.72
2022-11-22T12:04:06.509Z,98780.09
2022-11-22T12:06:33.610Z,98772.16
2022-11-22T12:09:00.928Z,98771.06
2022-11-22T12:11:42.349Z,98779.03
2022-11-22T12:14:20.068Z,98787.88
2022-11-22T12:16:48.207Z,98786.72
2022-11-22T12:19:29.925Z,98787.56
2022-11-22T12:22:29.465Z,98765.06
2022-11-22T12:25:31.930Z,98799.69
2022-11-22T12:28:09.707Z,98790.63
2022-11-22T12:30:38.143Z,98793.72
2022-11-22T12:33:06.784Z,98786.25
2022-11-22T12:35:42.311Z,98801.22
2022-11-22T12:38:17.866Z,98792.41
2022-11-22T12:40:56.264Z,98786.84
2022-11-22T12:43:25.105Z,98779.97
2022-11-22T12:46:14.111Z,98735.47
2022-11-22T12:48:53.135Z,98769.00
2022-11-22T12:51:52.643Z,98772.25
2022-11-22T12:54:33.730Z,98778.59
2022-11-22T12:57:06.376Z,98779.47
2022-11-22T12:59:38.805Z,98772.72
2022-11-22T13:02:17.327Z,98782.88
2022-11-22T13:05:00.677Z,98772.44
2022-11-22T13:07:36.565Z,98788.22
2022-11-22T13:10:09.280Z,98790.03
2022-11-22T13:12:37.842Z,98780.56
2022-11-22T13:15:05.261Z,98788.69
2022-11-22T13:17:34.899Z,98780.03
2022-11-22T13:20:21.284Z,98785.69
2022-11-22T13:23:09.973Z,98780.78
2022-11-22T13:25:51.480Z,98785.75
2022-11-22T13:28:23.967Z,98773.13
2022-11-22T13:31:10.212Z,98774.03
2022-11-22T13:33:41.612Z,98776.25
2022-11-22T13:36:26.912Z,98772.09
2022-11-22T13:38:55.979Z,98740.72
2022-11-22T13:41:34.563Z,98771.63
2022-11-22T13:44:24.402Z,98764.84
2022-11-22T13:46:53.792Z,98777.38
2022-11-22T13:49:35.447Z,98772.13
2022-11-22T13:52:12.787Z,98775.44
2022-11-22T13:54:42.482Z,98782.06
2022-11-22T13:57:29.374Z,98767.31
2022-11-22T14:00:14.387Z,98773.56
2022-11-22T14:02:48.129Z,98774.75
2022-11-22T14:05:17.611Z,98759.13
2022-11-22T14:07:44.405Z,98763.16
2022-11-22T14:10:26.450Z,98771.28
2022-11-22T14:13:16.104Z,98777.56
2022-11-22T14:16:11.644Z,98771.13
2022-11-22T14:18:53.405Z,98757.72
2022-11-22T14:21:28.831Z,98763.66
2022-11-22T14:24:26.271Z,98757.16
2022-11-22T14:27:26.418Z,98759.31
2022-11-22T14:30:15.164Z,98759.44
2022-11-22T14:32:55.639Z,98761.81
2022-11-22T14:35:30.066Z,98764.63
2022-11-22T14:38:28.541Z,98752.84
2022-11-22T14:41:45.132Z,98758.69
2022-11-22T14:44:18.688Z,98767.31
2022-11-22T14:46:54.622Z,98774.44
2022-11-22T14:49:21.538Z,98771.75
2022-11-22T14:51:52.659Z,98778.09
2022-11-22T14:54:28.049Z,98783.66
2022-11-22T14:57:01.249Z,98779.09
2022-11-22T14:59:39.684Z,98777.44
2022-11-22T15:02:36.188Z,98776.56
2022-11-22T15:09:11.062Z,98774.00
2022-11-22T15:09:21.647Z,98778.41
2022-11-22T15:11:53.985Z,98769.72
2022-11-22T15:14:42.224Z,98768.44
2022-11-22T15:59:42.806Z,98775.06
2022-11-22T16:02:18.966Z,98750.25
2022-11-22T16:06:04.619Z,98780.56
2022-11-22T16:07:48.876Z,98789.00
2022-11-22T16:10:27.640Z,98761.97
2022-11-22T16:12:54.527Z,98786.72
2022-11-22T16:15:38.413Z,98787.81
2022-11-22T16:18:27.141Z,98777.44
2022-11-22T16:21:03.237Z,98799.06
2022-11-22T16:23:33.144Z,98791.78
2022-11-22T16:26:12.369Z,98800.34
2022-11-22T16:28:39.068Z,98789.69
2022-11-22T16:31:15.988Z,98740.78
2022-11-22T16:33:44.224Z,98771.25
2022-11-22T16:36:16.156Z,98811.84
2022-11-22T16:38:43.565Z,98819.63
2022-11-22T16:41:21.155Z,98783.63
2022-11-22T16:43:52.104Z,98813.13
2022-11-22T16:46:18.955Z,98779.16
2022-11-22T16:48:45.711Z,98823.19
2022-11-22T16:51:15.043Z,98811.38
2022-11-22T16:53:44.233Z,98828.41
2022-11-22T16:56:19.350Z,98806.19
2022-11-22T16:58:46.844Z,98823.81
2022-11-22T17:01:16.085Z,98823.66
2022-11-22T17:03:43.776Z,98797.81
2022-11-22T17:06:22.188Z,98823.66
2022-11-22T17:08:50.479Z,98831.16
2022-11-22T17:11:19.599Z,98843.94
2022-11-22T17:13:46.424Z,98815.69
2022-11-22T17:16:13.378Z,98801.16
2022-11-22T17:18:40.103Z,98830.72
2022-11-22T17:21:15.137Z,98834.81
2022-11-22T17:23:41.962Z,98821.53
2022-11-22T17:26:09.980Z,98845.53
2022-11-22T17:28:36.446Z,98809.00
2022-11-22T17:31:02.988Z,98845.97
2022-11-22T17:33:29.641Z,98846.28
2022-11-22T17:35:56.576Z,98851.03
2022-11-22T17:38:23.026Z,98858.19
2022-11-22T17:40:50.228Z,98848.47
2022-11-22T17:43:17.415Z,98822.19
2022-11-22T17:45:45.063Z,98866.16
2022-11-22T17:48:12.230Z,98863.69
2022-11-22T17:50:39.426Z,98818.28
2022-11-22T17:53:05.892Z,98863.53
2022-11-22T17:55:48.265Z,98832.06
2022-11-22T17:58:19.103Z,98851.94
2022-11-22T18:00:45.617Z,98712.97
2022-11-22T18:03:15.624Z,98874.88
2022-11-22T18:05:42.643Z,98875.66
2022-11-22T18:08:09.184Z,98865.00
2022-11-22T18:10:35.636Z,98819.47
2022-11-22T18:13:31.954Z,98878.19
2022-11-22T18:15:52.830Z,98881.16
2022-11-22T18:18:40.730Z,98882.00
2022-11-22T18:21:11.412Z,98864.13
2022-11-22T18:23:40.748Z,98877.13
2022-11-22T18:29:24.621Z,98860.50
2022-11-22T18:31:54.015Z,98889.13
2022-11-22T18:34:22.145Z,98879.63
2022-11-22T18:36:55.177Z,98884.19
2022-11-22T18:39:22.902Z,98884.59
2022-11-22T18:41:49.492Z,98870.25
2022-11-22T18:44:16.032Z,98870.72
2022-11-22T18:46:42.640Z,98888.00
2022-11-22T18:49:09.885Z,98894.22
2022-11-22T18:51:36.438Z,98890.66
2022-11-22T18:54:03.091Z,98897.97
2022-11-22T18:56:29.799Z,98854.19
2022-11-22T18:58:56.349Z,98878.94
2022-11-22T19:01:23.424Z,98895.56
2022-11-22T19:03:49.984Z,98876.56
2022-11-22T19:06:18.400Z,98893.69
2022-11-22T19:08:45.994Z,98893.38
2022-11-22T19:11:12.792Z,98896.00
2022-11-22T19:13:40.991Z,98887.91
2022-11-22T19:16:13.201Z,98855.34
2022-11-22T19:18:42.872Z,98908.47
2022-11-22T19:21:11.926Z,98904.56
2022-11-22T19:23:41.598Z,98895.75
2022-11-22T19:26:10.396Z,98889.38
2022-11-22T19:28:37.221Z,98896.75
2022-11-22T19:31:15.115Z,98901.72
2022-11-22T19:33:41.655Z,98907.34
2022-11-22T19:36:11.635Z,98898.19
2022-11-22T19:38:38.125Z,98902.50
2022-11-22T19:41:12.183Z,98905.72
2022-11-22T19:43:38.957Z,98899.84
2022-11-22T19:46:16.013Z,98905.56
2022-11-22T19:48:46.992Z,98894.06
2022-11-22T19:51:15.362Z,98898.00
2022-11-22T19:53:42.851Z,98910.16
2022-11-22T19:56:16.302Z,98898.28
2022-11-22T19:58:44.403Z,98899.56
2022-11-22T20:01:13.016Z,98866.00
2022-11-22T20:03:41.077Z,98910.97
2022-11-22T20:06:09.081Z,98913.63
2022-11-22T20:08:36.007Z,98917.16
2022-11-22T20:11:04.038Z,98899.19
2022-11-22T20:13:30.671Z,98915.34
2022-11-22T20:15:57.419Z,98912.34
2022-11-22T20:18:23.908Z,98922.78
2022-11-22T20:20:50.616Z,98917.53
2022-11-22T20:23:17.122Z,98881.59
2022-11-22T20:25:43.745Z,98893.41
2022-11-22T20:28:10.220Z,98920.78
2022-11-22T20:30:36.832Z,98880.38
2022-11-22T20:33:03.359Z,98906.44
2022-11-22T20:35:29.800Z,98910.59
2022-11-22T20:37:56.467Z,98914.44
2022-11-22T20:40:22.952Z,98865.06
2022-11-22T20:42:49.404Z,98922.16
2022-11-22T20:45:15.941Z,98920.50
2022-11-22T20:47:42.443Z,98926.69
2022-11-22T20:50:09.081Z,98925.78
2022-11-22T20:52:35.758Z,98886.16
2022-11-22T20:55:05.363Z,98917.44
2022-11-22T20:57:32.140Z,98929.09
2022-11-22T20:59:58.836Z,98926.31
2022-11-22T21:02:25.290Z,98931.00
2022-11-22T21:04:53.772Z,98883.31
2022-11-22T21:07:20.229Z,98921.63
2022-11-22T21:09:46.738Z,98923.69
2022-11-22T21:12:13.185Z,98925.91
2022-11-22T21:14:40.306Z,98871.34
2022-11-22T21:17:30.588Z,98919.47
2022-11-22T21:19:53.309Z,98924.06
2022-11-22T21:22:19.718Z,98926.63
2022-11-22T21:24:46.204Z,98929.47
2022-11-22T21:27:12.670Z,98925.97
2022-11-22T21:29:39.851Z,98899.41
2022-11-22T21:32:06.394Z,98875.25
2022-11-22T21:34:33.721Z,98943.34
2022-11-22T21:37:00.285Z,98942.28
2022-11-22T21:39:26.782Z,98938.94
2022-11-22T21:41:54.759Z,98935.50
2022-11-22T21:44:21.273Z,98940.53
2022-11-22T21:46:47.739Z,98944.16
2022-11-22T21:49:14.243Z,98947.38
2022-11-22T21:51:40.710Z,98944.75
2022-11-22T21:54:07.331Z,98917.16
2022-11-22T21:56:36.404Z,98950.44
2022-11-22T21:59:02.910Z,98950.22
2022-11-22T22:01:29.559Z,98920.78
2022-11-22T22:03:56.304Z,98927.75
2022-11-22T22:06:22.911Z,98957.13
2022-11-22T22:08:49.376Z,98954.06
2022-11-22T22:11:16.094Z,98967.19
2022-11-22T22:13:42.568Z,98966.63
2022-11-22T22:16:15.304Z,98965.31
2022-11-22T22:18:43.382Z,98952.47
2022-11-22T22:21:10.990Z,98922.00
2022-11-22T22:23:38.543Z,98963.09
2022-11-22T22:26:07.427Z,98932.88
2022-11-22T22:28:36.155Z,98967.78
2022-11-22T22:31:04.552Z,98952.53
2022-11-22T22:33:31.517Z,98958.09
2022-11-22T22:35:59.092Z,98960.03
2022-11-22T22:38:25.799Z,98958.56
2022-11-22T22:40:56.092Z,98959.16
2022-11-22T22:43:23.355Z,98939.41
2022-11-22T22:45:50.802Z,98960.94
2022-11-22T22:48:18.202Z,98969.41
2022-11-22T22:50:44.923Z,98978.22
2022-11-22T22:53:11.721Z,98954.53
2022-11-22T22:55:38.240Z,98960.75
2022-11-22T22:58:04.947Z,98928.22
2022-11-22T23:00:31.450Z,98924.09
2022-11-22T23:02:57.909Z,98918.75
2022-11-22T23:05:24.731Z,98955.09
2022-11-22T23:07:51.233Z,98917.44
2022-11-22T23:10:17.911Z,98900.53
2022-11-22T23:12:44.554Z,98959.16
2022-11-22T23:15:10.990Z,98942.91
2022-11-22T23:17:37.586Z,98963.78
2022-11-22T23:20:04.373Z,98964.72
2022-11-22T23:22:30.915Z,98963.78
2022-11-22T23:24:57.368Z,98944.22
2022-11-22T23:27:23.827Z,98978.97
2022-11-22T23:29:50.340Z,98972.44
2022-11-22T23:32:16.779Z,98965.66
2022-11-22T23:34:43.185Z,98966.47
2022-11-22T23:37:09.628Z,98974.31
2022-11-22T23:39:36.233Z,98939.22
2022-11-22T23:42:02.746Z,98964.97
2022-11-22T23:44:29.256Z,98964.19
2022-11-22T23:46:55.723Z,98927.31
2022-11-22T23:49:22.168Z,98981.91
2022-11-22T23:51:50.277Z,98976.16
2022-11-22T23:54:17.114Z,98988.50
2022-11-22T23:56:43.578Z,98982.56
2022-11-22T23:59:10.407Z,98929.25
